x

South Uist Range (03023) Weather Station

11:00 - Wed 4th May 2016 All times are BST. 1 hours from GMT.

  • Wind
    36mph, 45mph gusts
  • Air Temp 47°f
  • Sea Pressure 1009mb
  • South Uist Range
  • South Uist Range

More Historic Weather Station data

Upgrade to MSW Pro to gain access to the past 30 days of data for over 8000 Wavebouys and Weather Stations around the globe.

Join Pro

Comparision Forecast

View Surf forecast
   
mer. 05/04 11:00 36 45 mph 1009mb 47f
10:00 30 44 mph 1009mb 46f
9:00 33 45 mph 1010mb 46f
8:00 32 43 mph 1010mb 47f
7:00 31 43 mph 1011mb 46f
6:00 28 39 mph 1011mb 45f
5:00 28 39 mph 1012mb 46f
4:00 24 38 mph 1013mb 46f
3:00 26 36 mph 1014mb 48f
2:00 24 36 mph 1015mb 48f
1:00 22 29 mph 1015mb 47f
12:00 18
mph
1016mb 46f
mar. 05/03 11:00 16
mph
1017mb 46f
10:00 16
mph
1017mb 46f
9:00 22 29 mph 1017mb 47f
8:00 19
mph
1017mb 47f
7:00 19 31 mph 1017mb 48f
6:00 18 31 mph 1017mb 48f
5:00 23 30 mph 1017mb 49f
4:00 24 33 mph 1017mb 50f
3:00 23 36 mph 1017mb 51f
2:00 25 33 mph 1016mb 50f
1:00 22 34 mph 1015mb 51f
12:00 25 33 mph 1015mb 50f
11:00 28 36 mph 1014mb 49f
10:00 25 38 mph 1013mb 48f
9:00 24 40 mph 1013mb 47f
8:00 26 40 mph 1012mb 47f
7:00 29 41 mph 1011mb 46f
6:00 29 43 mph 1010mb 46f
5:00 25 40 mph 1010mb 42f
4:00 37 49 mph 1010mb 43f
3:00 30 41 mph 1009mb 46f
2:00 32 48 mph 1009mb 45f
1:00 37 61 mph 1009mb 44f
12:00 31 40 mph 1009mb 45f
lun. 05/02 11:00 19 40 mph 1008mb 45f
10:00 33 47 mph 1008mb 43f
9:00 23 38 mph 1007mb 46f
8:00 25 40 mph 1006mb 46f
7:00 29 41 mph 1006mb 47f
6:00 25 38 mph 1006mb 46f
5:00 29 43 mph 1006mb 49f
4:00 26 37 mph 1006mb 49f
3:00 24 38 mph 1005mb 50f
2:00 30 43 mph 1004mb 49f
1:00 28 45 mph 1003mb 48f
12:00 26 40 mph 1003mb 49f
11:00 19 46 mph 1002mb 47f
10:00 19 33 mph 1001mb 47f
9:00 24 33 mph 1001mb 48f
8:00 22 30 mph 1000mb 47f
7:00 21 31 mph 1000mb 47f
6:00 23 31 mph 999mb 47f
5:00 23 39 mph 999mb 47f
4:00 26 33 mph 999mb 47f
3:00 24 30 mph 1000mb 47f
2:00 21 31 mph 1000mb 47f
1:00 29 44 mph 1001mb 47f
12:00 33 43 mph 1001mb 50f
dim. 05/01 11:00 31 43 mph 1002mb 50f
10:00 34 48 mph 1003mb 50f
9:00 37 48 mph 1003mb 50f
8:00 34 51 mph 1004mb 48f
7:00 32 45 mph 1006mb 46f
6:00 24 33 mph 1008mb 45f
5:00 21 32 mph 1010mb 46f
4:00 23 31 mph 1011mb 48f
3:00 22 29 mph 1012mb 49f
2:00 16
mph
1013mb 48f
1:00 17
mph
1013mb 48f
12:00 17
mph
1013mb 50f
11:00 17 29 mph 1013mb 46f
10:00 15
mph
1013mb 49f
9:00 13
mph
1012mb 48f
8:00 22
mph
1012mb 47f
7:00 19
mph
1011mb 46f
6:00 14 30 mph 1010mb 45f
5:00 22 43 mph 1009mb 46f
4:00 33 43 mph 1008mb 46f
3:00 34 46 mph 1008mb 45f
2:00 34 49 mph 1009mb 44f
1:00 31 44 mph 1011mb 44f
12:00 29 38 mph 1012mb 43f
sam. 04/30 11:00 25 41 mph 1013mb 44f
10:00 22 32 mph 1014mb 45f
9:00 25 31 mph 1015mb 45f
8:00 23 30 mph 1015mb 46f
7:00 23 29 mph 1016mb 47f
6:00 22
mph
1016mb 48f
5:00 18
mph
1016mb 49f
4:00 17 29 mph 1016mb 49f
3:00 22 30 mph 1016mb 44f
2:00 18
mph
1016mb 49f
1:00 18
mph
1015mb 48f
12:00 16
mph
1015mb 47f